createdAt,value
2019-05-21T00:02:12.610Z,23.27
2019-05-21T00:04:42.628Z,24.00
2019-05-21T00:07:12.634Z,23.67
2019-05-21T00:09:42.667Z,23.17
2019-05-21T00:12:14.184Z,23.87
2019-05-21T00:14:44.212Z,23.33
2019-05-21T00:17:14.215Z,25.27
2019-05-21T00:19:44.243Z,24.73
2019-05-21T00:22:14.239Z,24.03
2019-05-21T00:24:44.383Z,24.63
2019-05-21T00:27:14.500Z,24.03
2019-05-21T00:30:20.927Z,23.87
2019-05-21T00:33:27.592Z,23.60
2019-05-21T00:36:34.660Z,24.13
2019-05-21T00:39:41.112Z,23.70
2019-05-21T00:42:09.961Z,24.27
2019-05-21T00:44:43.847Z,23.43
2019-05-21T00:47:16.561Z,24.70
2019-05-21T00:49:46.589Z,24.40
2019-05-21T00:52:16.581Z,23.47
2019-05-21T00:54:46.612Z,23.53
2019-05-21T00:57:16.615Z,23.13
2019-05-21T00:59:47.282Z,25.17
2019-05-21T01:02:17.280Z,25.13
2019-05-21T01:05:00.362Z,23.37
2019-05-21T01:07:22.155Z,23.87
2019-05-21T01:09:52.657Z,24.40
2019-05-21T01:12:22.683Z,22.60
2019-05-21T01:14:52.756Z,24.07
2019-05-21T01:17:22.799Z,23.40
2019-05-21T01:19:52.884Z,25.17
2019-05-21T01:22:23.761Z,26.30
2019-05-21T01:24:54.875Z,23.33
2019-05-21T01:27:24.880Z,24.30
2019-05-21T01:29:54.904Z,23.10
2019-05-21T01:32:24.990Z,23.73
2019-05-21T01:34:54.995Z,24.53
2019-05-21T01:37:25.022Z,24.23
2019-05-21T01:39:55.013Z,23.23
2019-05-21T01:42:25.037Z,24.33
2019-05-21T01:44:55.040Z,23.77
2019-05-21T01:47:25.566Z,22.63
2019-05-21T01:49:55.585Z,24.37
2019-05-21T01:52:25.599Z,23.83
2019-05-21T01:54:55.601Z,23.27
2019-05-21T01:57:25.616Z,23.67
2019-05-21T01:59:55.620Z,24.67
2019-05-21T02:02:25.657Z,24.50
2019-05-21T02:04:55.687Z,25.33
2019-05-21T02:07:25.676Z,25.87
2019-05-21T02:09:58.729Z,23.70
2019-05-21T02:12:28.859Z,25.80
2019-05-21T02:14:59.201Z,25.13
2019-05-21T02:17:29.842Z,24.77
2019-05-21T02:19:59.861Z,25.37
2019-05-21T02:22:29.873Z,24.70
2019-05-21T02:24:59.893Z,24.93
2019-05-21T02:27:29.894Z,24.87
2019-05-21T02:29:59.926Z,24.63
2019-05-21T02:32:31.556Z,23.80
2019-05-21T02:35:01.589Z,24.90
2019-05-21T02:37:31.586Z,24.40
2019-05-21T02:40:01.589Z,25.97
2019-05-21T02:42:31.606Z,25.60
2019-05-21T02:45:01.775Z,25.57
2019-05-21T02:47:31.845Z,25.47
2019-05-21T02:50:03.480Z,25.10
2019-05-21T02:52:35.017Z,24.47
2019-05-21T02:55:06.826Z,25.70
2019-05-21T02:57:41.306Z,24.83
2019-05-21T03:00:21.351Z,26.23
2019-05-21T03:02:51.509Z,25.33
2019-05-21T03:05:21.534Z,25.97
2019-05-21T03:07:51.969Z,26.43
2019-05-21T03:10:23.080Z,25.17
2019-05-21T03:12:53.170Z,24.57
2019-05-21T03:15:23.335Z,26.20
2019-05-21T03:17:54.397Z,26.47
2019-05-21T03:20:24.494Z,26.10
2019-05-21T03:22:54.572Z,25.97
2019-05-21T03:25:27.427Z,26.60
2019-05-21T03:27:57.428Z,26.93
2019-05-21T03:30:27.443Z,24.90
2019-05-21T03:32:57.528Z,27.07
2019-05-21T03:35:27.539Z,26.87
2019-05-21T03:37:57.525Z,28.13
2019-05-21T03:40:27.562Z,28.87
2019-05-21T03:42:57.638Z,28.50
2019-05-21T03:45:27.643Z,28.13
2019-05-21T03:47:58.853Z,27.90
2019-05-21T03:50:28.954Z,28.50
2019-05-21T03:53:00.557Z,28.57
2019-05-21T03:55:32.549Z,27.90
2019-05-21T03:58:02.546Z,28.87
2019-05-21T04:00:32.581Z,29.97
2019-05-21T04:03:02.606Z,29.03
2019-05-21T04:05:32.631Z,27.97
2019-05-21T04:08:02.716Z,30.37
2019-05-21T04:10:32.721Z,29.37
2019-05-21T04:13:06.227Z,26.17
2019-05-21T04:15:39.880Z,28.73
2019-05-21T04:18:11.632Z,29.80
2019-05-21T04:20:41.664Z,29.77
2019-05-21T04:23:12.911Z,29.50
2019-05-21T04:25:43.073Z,28.13
2019-05-21T04:28:13.240Z,29.13
2019-05-21T04:30:45.974Z,29.87
2019-05-21T04:33:15.973Z,29.57
2019-05-21T04:35:47.534Z,30.93
2019-05-21T04:38:20.821Z,28.00
2019-05-21T04:40:51.822Z,26.27
2019-05-21T04:43:21.902Z,24.23
2019-05-21T04:45:51.922Z,22.30
2019-05-21T04:48:21.955Z,18.93
2019-05-21T04:50:51.968Z,18.73
2019-05-21T04:53:22.000Z,17.43
2019-05-21T04:55:52.011Z,17.73
2019-05-21T04:58:22.041Z,17.17
2019-05-21T05:00:52.042Z,16.67
2019-05-21T05:03:22.151Z,17.07
2019-05-21T05:05:52.147Z,15.50
2019-05-21T05:08:22.270Z,17.03
2019-05-21T05:10:52.297Z,17.70
2019-05-21T05:13:22.402Z,16.77
2019-05-21T05:15:52.413Z,17.17
2019-05-21T05:18:22.513Z,17.43
2019-05-21T05:20:52.524Z,17.43
2019-05-21T05:23:25.672Z,16.50
2019-05-21T05:25:55.747Z,17.10
2019-05-21T05:28:25.777Z,16.67
2019-05-21T05:30:57.396Z,17.00
2019-05-21T05:33:27.434Z,17.13
2019-05-21T05:35:57.466Z,15.60
2019-05-21T05:38:27.541Z,15.20
2019-05-21T05:40:57.618Z,15.63
2019-05-21T05:43:28.652Z,15.57
2019-05-21T05:46:00.603Z,14.20
2019-05-21T05:48:32.410Z,15.33
2019-05-21T05:51:08.959Z,15.33
2019-05-21T05:53:57.381Z,14.60
2019-05-21T05:56:29.461Z,15.10
2019-05-21T05:58:59.513Z,17.03
2019-05-21T06:01:31.407Z,16.10
2019-05-21T06:04:03.387Z,15.93
2019-05-21T06:06:33.453Z,16.50
2019-05-21T06:09:05.450Z,16.63
2019-05-21T06:11:35.590Z,15.17
2019-05-21T06:14:05.791Z,17.83
2019-05-21T06:16:35.886Z,16.33
2019-05-21T06:19:06.052Z,17.33
2019-05-21T06:21:36.087Z,16.40
2019-05-21T06:24:06.273Z,16.87
2019-05-21T06:26:36.298Z,16.53
2019-05-21T06:29:06.378Z,17.50
2019-05-21T06:31:36.534Z,17.93
2019-05-21T06:34:06.626Z,19.20
2019-05-21T06:36:36.725Z,19.27
2019-05-21T06:39:07.774Z,20.57
2019-05-21T06:41:37.799Z,20.87
2019-05-21T06:44:07.873Z,19.93
2019-05-21T06:46:38.577Z,20.93
2019-05-21T06:49:08.749Z,19.47
2019-05-21T06:51:38.879Z,19.93
2019-05-21T06:54:08.949Z,21.17
2019-05-21T06:56:38.971Z,21.30
2019-05-21T06:59:09.005Z,20.10
2019-05-21T07:01:39.009Z,21.07
2019-05-21T07:04:09.240Z,20.97
2019-05-21T07:06:39.231Z,20.93
2019-05-21T07:09:11.806Z,21.20
2019-05-21T07:11:41.825Z,21.53
2019-05-21T07:14:11.919Z,20.35
2019-05-21T07:16:41.955Z,21.30
2019-05-21T07:19:11.980Z,19.77
2019-05-21T07:21:42.031Z,18.63
2019-05-21T07:24:12.177Z,19.43
2019-05-21T07:26:42.308Z,18.13
2019-05-21T07:29:13.371Z,18.27
2019-05-21T07:31:43.531Z,18.47
2019-05-21T07:34:13.607Z,19.07
2019-05-21T07:36:43.643Z,18.17
2019-05-21T07:39:13.737Z,18.90
2019-05-21T07:41:43.751Z,18.97
2019-05-21T07:44:13.814Z,18.30
2019-05-21T07:46:43.857Z,19.20
2019-05-21T07:49:13.936Z,19.23
2019-05-21T07:51:43.981Z,18.83
2019-05-21T07:54:13.983Z,18.10
2019-05-21T07:56:44.199Z,20.07
2019-05-21T07:59:14.274Z,19.97
2019-05-21T08:01:44.319Z,20.27
2019-05-21T08:04:14.397Z,19.43
2019-05-21T08:06:44.668Z,19.80
2019-05-21T08:09:15.207Z,19.63
2019-05-21T08:11:47.099Z,20.88
2019-05-21T08:14:17.031Z,19.93
2019-05-21T08:16:47.036Z,19.63
2019-05-21T08:19:17.074Z,19.20
2019-05-21T08:21:48.641Z,19.90
2019-05-21T08:24:18.734Z,20.43
2019-05-21T08:26:48.767Z,19.90
2019-05-21T08:29:18.808Z,18.85
2019-05-21T08:31:48.967Z,19.92
2019-05-21T08:34:19.019Z,18.93
2019-05-21T08:36:49.194Z,20.43
2019-05-21T08:39:28.197Z,20.13
2019-05-21T08:41:52.608Z,20.23
2019-05-21T08:44:22.636Z,19.40
2019-05-21T08:46:52.705Z,20.37
2019-05-21T08:49:22.747Z,20.57
2019-05-21T08:51:52.775Z,20.83
2019-05-21T08:54:39.769Z,18.23
2019-05-21T08:57:09.927Z,17.33
2019-05-21T08:59:40.097Z,18.23
2019-05-21T09:02:10.442Z,19.15
2019-05-21T09:04:46.502Z,19.32
2019-05-21T09:07:12.461Z,19.33
2019-05-21T09:09:50.154Z,19.77
2019-05-21T09:12:14.516Z,18.25
2019-05-21T09:14:44.614Z,18.95
2019-05-21T09:17:14.665Z,18.40
2019-05-21T09:19:44.739Z,18.17
2019-05-21T09:22:14.843Z,15.43
2019-05-21T09:24:44.850Z,16.62
2019-05-21T09:27:15.039Z,15.57
2019-05-21T09:29:45.057Z,16.37
2019-05-21T09:32:15.120Z,16.35
2019-05-21T09:34:49.189Z,16.70
2019-05-21T09:37:19.681Z,14.87
2019-05-21T09:39:48.800Z,15.25
2019-05-21T09:42:19.034Z,15.33
2019-05-21T09:44:49.098Z,15.00
2019-05-21T09:47:19.146Z,14.70
2019-05-21T09:49:49.151Z,14.60
2019-05-21T09:52:19.181Z,13.43
2019-05-21T09:54:49.193Z,12.90
2019-05-21T09:57:20.877Z,13.20
2019-05-21T09:59:55.196Z,14.20
2019-05-21T10:02:26.870Z,14.15
2019-05-21T10:04:56.960Z,13.50
2019-05-21T10:07:39.315Z,13.00
2019-05-21T10:09:58.778Z,11.73
2019-05-21T10:12:28.804Z,12.25
2019-05-21T10:14:58.841Z,13.05
2019-05-21T10:17:28.879Z,11.30
2019-05-21T10:19:59.157Z,10.30
2019-05-21T10:22:29.258Z,12.10
2019-05-21T10:24:59.282Z,11.57
2019-05-21T10:27:29.304Z,12.07
2019-05-21T10:29:59.352Z,11.10
2019-05-21T10:32:29.416Z,10.67
2019-05-21T10:34:59.516Z,9.77
2019-05-21T10:37:30.051Z,9.40
2019-05-21T10:40:00.138Z,8.17
2019-05-21T10:42:30.194Z,7.60
2019-05-21T10:45:00.203Z,7.70
2019-05-21T10:47:30.200Z,7.97
2019-05-21T10:50:00.204Z,8.13
2019-05-21T10:52:30.294Z,8.07
2019-05-21T10:55:00.296Z,8.70
2019-05-21T10:57:30.486Z,8.27
2019-05-21T11:00:00.458Z,8.93
2019-05-21T11:02:32.121Z,9.50
2019-05-21T11:05:06.625Z,9.00
2019-05-21T11:07:36.628Z,10.23
2019-05-21T11:10:08.326Z,9.90
2019-05-21T11:12:39.518Z,8.33
2019-05-21T11:15:09.920Z,7.92
2019-05-21T11:17:53.301Z,7.80
2019-05-21T11:20:12.635Z,7.28
2019-05-21T11:22:42.722Z,7.45
2019-05-21T11:25:13.393Z,7.72
2019-05-21T11:27:43.459Z,8.60
2019-05-21T11:30:13.667Z,9.00
2019-05-21T11:32:43.808Z,8.97
2019-05-21T11:35:14.279Z,10.03
2019-05-21T11:37:47.688Z,10.17
2019-05-21T11:40:17.413Z,10.05
2019-05-21T11:42:47.517Z,11.30
2019-05-21T11:45:31.086Z,11.95
2019-05-21T11:47:54.276Z,12.47
2019-05-21T11:50:22.831Z,11.40
2019-05-21T11:52:52.917Z,12.13
2019-05-21T11:55:23.022Z,11.33
2019-05-21T11:57:53.064Z,13.80
2019-05-21T12:00:25.689Z,14.30
2019-05-21T12:02:55.850Z,14.03
2019-05-21T12:05:30.642Z,13.00
2019-05-21T12:08:01.730Z,13.80
2019-05-21T12:10:31.751Z,12.23
2019-05-21T12:13:01.810Z,12.55
2019-05-21T12:15:31.905Z,11.85
2019-05-21T12:18:03.000Z,12.15
2019-05-21T12:20:36.650Z,11.90
2019-05-21T12:23:07.264Z,12.37
2019-05-21T12:25:37.363Z,11.10
2019-05-21T12:28:10.981Z,12.63
2019-05-21T12:30:39.286Z,12.20
2019-05-21T12:33:09.342Z,10.98
2019-05-21T12:35:39.372Z,12.35
2019-05-21T12:38:09.390Z,11.95
2019-05-21T12:40:39.470Z,11.38
2019-05-21T12:43:09.567Z,11.85
2019-05-21T12:45:39.868Z,11.43
2019-05-21T12:48:09.903Z,10.20
2019-05-21T12:50:40.030Z,10.32
2019-05-21T12:53:10.107Z,10.80
2019-05-21T12:55:40.116Z,11.93
2019-05-21T12:58:10.212Z,10.95
2019-05-21T13:00:40.652Z,10.80
2019-05-21T13:03:10.691Z,11.30
2019-05-21T13:05:40.715Z,10.70
2019-05-21T13:08:10.741Z,12.10
2019-05-21T13:10:40.759Z,11.25
2019-05-21T13:13:10.959Z,14.35
2019-05-21T13:15:41.003Z,14.85
2019-05-21T13:18:12.636Z,15.55
2019-05-21T13:20:42.720Z,16.60
2019-05-21T13:23:12.941Z,15.30
2019-05-21T13:25:43.197Z,15.93
2019-05-21T13:28:13.273Z,16.40
2019-05-21T13:30:43.372Z,17.30
2019-05-21T13:33:13.383Z,17.77
2019-05-21T13:35:43.475Z,18.62
2019-05-21T13:38:13.905Z,18.98
2019-05-21T13:40:44.703Z,19.17
2019-05-21T13:43:14.859Z,18.17
2019-05-21T13:45:46.124Z,19.05
2019-05-21T13:48:16.170Z,19.82
2019-05-21T13:50:46.185Z,17.82
2019-05-21T13:53:16.395Z,18.15
2019-05-21T13:55:46.472Z,16.90
2019-05-21T13:58:16.569Z,19.27
2019-05-21T14:00:56.562Z,18.07
2019-05-21T14:03:26.834Z,18.82
2019-05-21T14:05:56.845Z,21.87
2019-05-21T14:08:27.196Z,21.27
2019-05-21T14:10:57.289Z,19.73
2019-05-21T14:13:27.394Z,19.52
2019-05-21T14:15:57.426Z,19.32
2019-05-21T14:18:27.552Z,21.27
2019-05-21T14:20:57.571Z,19.80
2019-05-21T14:23:27.603Z,20.57
2019-05-21T14:25:57.766Z,19.32
2019-05-21T14:28:27.973Z,17.85
2019-05-21T14:30:58.118Z,16.48
2019-05-21T14:33:29.344Z,15.30
2019-05-21T14:35:59.374Z,16.82
2019-05-21T14:38:29.406Z,16.02
2019-05-21T14:40:59.514Z,17.23
2019-05-21T14:43:29.594Z,17.15
2019-05-21T14:45:59.630Z,17.33
2019-05-21T14:48:29.673Z,17.53
2019-05-21T14:50:59.676Z,16.67
2019-05-21T14:53:29.771Z,17.47
2019-05-21T14:55:59.888Z,18.93
2019-05-21T14:58:29.903Z,19.20
2019-05-21T15:01:00.014Z,19.47
2019-05-21T15:03:30.064Z,22.63
2019-05-21T15:06:00.059Z,22.37
2019-05-21T15:08:30.183Z,20.23
2019-05-21T15:11:00.186Z,20.53
2019-05-21T15:13:30.289Z,19.77
2019-05-21T15:16:00.428Z,19.07
2019-05-21T15:18:30.481Z,19.60
2019-05-21T15:21:05.900Z,18.97
2019-05-21T15:23:36.119Z,17.97
2019-05-21T15:26:06.674Z,17.93
2019-05-21T15:28:39.532Z,18.93
2019-05-21T15:31:09.756Z,19.20
2019-05-21T15:33:39.794Z,18.57
2019-05-21T15:36:11.743Z,19.30
2019-05-21T15:38:50.230Z,18.20
2019-05-21T15:41:13.488Z,18.70
2019-05-21T15:43:43.506Z,17.50
2019-05-21T15:46:14.690Z,17.00
2019-05-21T15:48:44.698Z,17.13
2019-05-21T15:51:14.718Z,17.83
2019-05-21T15:53:44.725Z,17.37
2019-05-21T15:56:15.394Z,17.10
2019-05-21T15:58:45.541Z,18.30
2019-05-21T16:01:15.569Z,18.47
2019-05-21T16:03:45.592Z,18.87
2019-05-21T16:06:15.616Z,20.20
2019-05-21T16:08:47.290Z,20.40
2019-05-21T16:11:27.973Z,23.63
2019-05-21T16:13:49.112Z,23.53
2019-05-21T16:16:19.236Z,23.03
2019-05-21T16:18:49.268Z,21.60
2019-05-21T16:21:19.286Z,21.10
2019-05-21T16:23:49.308Z,20.10
2019-05-21T16:26:23.495Z,20.67
2019-05-21T16:28:53.647Z,19.90
2019-05-21T16:31:23.664Z,17.83
2019-05-21T16:33:53.841Z,17.63
2019-05-21T16:36:23.914Z,18.43
2019-05-21T16:38:54.064Z,16.60
2019-05-21T16:41:25.675Z,16.70
2019-05-21T16:43:57.546Z,15.90
2019-05-21T16:46:27.558Z,16.57
2019-05-21T16:48:57.591Z,17.33
2019-05-21T16:51:27.974Z,15.90
2019-05-21T16:53:59.233Z,16.93
2019-05-21T16:56:29.219Z,17.87
2019-05-21T16:58:59.256Z,16.70
2019-05-21T17:01:29.423Z,16.47
2019-05-21T17:04:00.370Z,16.10
2019-05-21T17:06:30.631Z,17.87
2019-05-21T17:09:00.724Z,15.70
2019-05-21T17:11:32.353Z,16.63
2019-05-21T17:14:02.387Z,16.77
2019-05-21T17:16:32.398Z,16.20
2019-05-21T17:19:02.641Z,15.73
2019-05-21T17:21:32.724Z,16.63
2019-05-21T17:24:02.770Z,16.53
2019-05-21T17:26:32.793Z,16.50
2019-05-21T17:29:06.592Z,16.60
2019-05-21T17:31:36.924Z,15.57
2019-05-21T17:34:08.676Z,17.20
2019-05-21T17:36:38.811Z,16.60
2019-05-21T17:39:08.971Z,17.30
2019-05-21T17:41:39.050Z,17.30
2019-05-21T17:44:09.955Z,17.00
2019-05-21T17:46:39.985Z,16.97
2019-05-21T17:49:10.026Z,18.87
2019-05-21T17:51:40.280Z,17.80
2019-05-21T17:54:10.457Z,18.43
2019-05-21T17:56:40.622Z,18.40
2019-05-21T17:59:12.731Z,19.00
2019-05-21T18:01:43.671Z,19.17
2019-05-21T18:04:14.233Z,19.13
2019-05-21T18:06:44.771Z,18.97
2019-05-21T18:09:17.682Z,18.90
2019-05-21T18:11:48.315Z,21.13
2019-05-21T18:14:20.046Z,21.87
2019-05-21T18:16:50.204Z,23.17
2019-05-21T18:19:21.001Z,26.03
2019-05-21T18:21:51.225Z,24.80
2019-05-21T18:24:21.416Z,24.07
2019-05-21T18:26:51.602Z,22.67
2019-05-21T18:29:24.381Z,22.77
2019-05-21T18:31:54.452Z,23.07
2019-05-21T18:34:24.635Z,20.87
2019-05-21T18:36:54.738Z,21.90
2019-05-21T18:39:25.534Z,24.10
2019-05-21T18:41:55.742Z,22.77
2019-05-21T18:44:28.668Z,22.70
2019-05-21T18:46:58.757Z,22.53
2019-05-21T18:49:28.856Z,22.77
2019-05-21T18:51:58.933Z,23.37
2019-05-21T18:54:28.968Z,23.53
2019-05-21T18:56:59.214Z,22.70
2019-05-21T18:59:29.413Z,21.60
2019-05-21T19:01:59.440Z,23.80
2019-05-21T19:04:31.980Z,22.60
2019-05-21T19:07:02.147Z,21.93
2019-05-21T19:09:32.418Z,21.73
2019-05-21T19:12:04.952Z,21.97
2019-05-21T19:14:35.228Z,20.63
2019-05-21T19:17:05.382Z,22.07
2019-05-21T19:19:35.587Z,22.50
2019-05-21T19:22:06.100Z,20.97
2019-05-21T19:24:37.714Z,21.17
2019-05-21T19:27:10.747Z,22.77
2019-05-21T19:29:41.680Z,21.93
2019-05-21T19:32:12.033Z,21.70
2019-05-21T19:34:42.142Z,22.67
2019-05-21T19:37:13.120Z,22.80
2019-05-21T19:39:43.237Z,24.00
2019-05-21T19:42:13.498Z,24.27
2019-05-21T19:44:43.520Z,22.90
2019-05-21T19:47:13.866Z,23.27
2019-05-21T19:49:43.873Z,22.20
2019-05-21T19:52:15.584Z,22.97
2019-05-21T19:54:48.365Z,23.30
2019-05-21T19:57:19.934Z,23.70
2019-05-21T19:59:50.309Z,23.03
2019-05-21T20:02:20.341Z,23.70
2019-05-21T20:04:51.057Z,23.83
2019-05-21T20:07:22.137Z,23.17
2019-05-21T20:09:52.551Z,22.70
2019-05-21T20:12:24.160Z,23.53
2019-05-21T20:14:54.536Z,23.43
2019-05-21T20:17:26.079Z,24.77
2019-05-21T20:19:59.673Z,23.90
2019-05-21T20:22:30.671Z,23.50
2019-05-21T20:25:01.283Z,22.90
2019-05-21T20:27:32.408Z,22.87
2019-05-21T20:30:12.103Z,24.70
2019-05-21T20:32:36.605Z,23.80
2019-05-21T20:35:08.938Z,25.20
2019-05-21T20:37:40.835Z,23.87
2019-05-21T20:40:12.976Z,22.37
2019-05-21T20:42:47.157Z,22.57
2019-05-21T20:45:21.688Z,23.50
2019-05-21T20:47:51.792Z,22.63
2019-05-21T20:50:23.176Z,22.23
2019-05-21T20:52:53.620Z,22.73
2019-05-21T20:55:25.595Z,23.27
2019-05-21T20:57:59.023Z,22.50
2019-05-21T21:00:30.494Z,21.93
2019-05-21T21:03:00.598Z,22.57
2019-05-21T21:05:30.953Z,21.30
2019-05-21T21:08:01.184Z,22.83
2019-05-21T21:10:31.285Z,21.73
2019-05-21T21:13:02.430Z,22.43
2019-05-21T21:15:33.237Z,21.33
2019-05-21T21:18:03.576Z,20.83
2019-05-21T21:20:34.538Z,24.23
2019-05-21T21:23:05.058Z,23.73
2019-05-21T21:25:35.161Z,24.60
2019-05-21T21:28:07.050Z,23.20
2019-05-21T21:30:37.494Z,23.33
2019-05-21T21:33:12.571Z,24.67
2019-05-21T21:35:43.511Z,22.87
2019-05-21T21:38:18.277Z,23.93
2019-05-21T21:40:48.564Z,24.73
2019-05-21T21:43:18.639Z,25.27
2019-05-21T21:45:49.346Z,24.43
2019-05-21T21:48:20.060Z,24.63
2019-05-21T21:50:51.088Z,24.93
2019-05-21T21:53:21.554Z,25.90
2019-05-21T21:55:54.837Z,24.47
2019-05-21T21:58:25.147Z,26.87
2019-05-21T22:01:11.942Z,26.03
2019-05-21T22:03:45.555Z,24.80
2019-05-21T22:06:17.357Z,25.37
2019-05-21T22:08:47.633Z,24.87
2019-05-21T22:11:19.557Z,25.20
2019-05-21T22:13:49.830Z,25.50
2019-05-21T22:16:20.193Z,24.10
2019-05-21T22:18:50.694Z,25.77
2019-05-21T22:21:21.019Z,24.17
2019-05-21T22:23:51.864Z,25.00
2019-05-21T22:26:22.208Z,25.97
2019-05-21T22:28:52.431Z,24.90
2019-05-21T22:31:22.521Z,24.37
2019-05-21T22:33:52.659Z,24.00
2019-05-21T22:36:23.239Z,25.43
2019-05-21T22:38:53.455Z,24.10
2019-05-21T22:41:23.564Z,25.53
2019-05-21T22:43:53.743Z,25.20
2019-05-21T22:46:23.913Z,23.87
2019-05-21T22:48:54.175Z,22.97
2019-05-21T22:51:24.287Z,24.80
2019-05-21T22:53:54.371Z,24.17
2019-05-21T22:56:24.379Z,23.70
2019-05-21T22:58:56.014Z,24.87
2019-05-21T23:01:27.826Z,24.07
2019-05-21T23:04:00.551Z,23.43
2019-05-21T23:06:32.330Z,23.03
2019-05-21T23:09:02.843Z,22.83
2019-05-21T23:11:33.081Z,24.17
2019-05-21T23:14:03.449Z,22.13
2019-05-21T23:16:35.070Z,23.80
2019-05-21T23:19:24.388Z,24.53
2019-05-21T23:21:59.202Z,25.30
2019-05-21T23:24:29.845Z,25.57
2019-05-21T23:27:00.383Z,24.97
2019-05-21T23:29:30.805Z,24.50
2019-05-21T23:32:01.079Z,25.90
2019-05-21T23:34:31.758Z,25.80
2019-05-21T23:37:02.554Z,25.17
2019-05-21T23:39:35.300Z,26.90
2019-05-21T23:42:07.816Z,26.27
2019-05-21T23:44:38.067Z,25.80
2019-05-21T23:47:09.732Z,25.43
2019-05-21T23:49:43.090Z,24.40
2019-05-21T23:52:15.782Z,25.40
2019-05-21T23:54:47.435Z,25.27
2019-05-21T23:57:22.613Z,25.17
2019-05-21T23:59:52.785Z,24.60
